Time,TemperatureF,DewpointF,PressureIn,WindDirection,WindDirectionDegrees,WindSpeedMPH,WindSpeedGustMPH,Humidity,HourlyPrecipIn,Conditions,Clouds,dailyrainin,SoftwareType,DateUTC
2013-02-08 00:09:00,55.8,53.0,28.78,NNE,12,0.0,-999.0,91,-99.99,,,0.00,weatherlink.com 1.10,2013-02-08 06:09:00,
2013-02-08 00:24:00,55.3,53.0,28.98,NNE,12,0.0,-999.0,92,-99.99,,,0.00,weatherlink.com 1.10,2013-02-08 06:24:00,
2013-02-08 00:39:00,54.7,53.0,29.12,NNE,12,0.0,-999.0,92,-99.99,,,0.00,weatherlink.com 1.10,2013-02-08 06:39:00,
2013-02-08 00:54:00,54.4,52.0,29.12,NNE,12,0.0,-999.0,92,-99.99,,,0.00,weatherlink.com 1.10,2013-02-08 06:54:00,
2013-02-08 01:09:00,54.2,52.0,29.27,NNE,12,0.0,-999.0,92,-99.99,,,0.00,weatherlink.com 1.10,2013-02-08 07:09:00,
2013-02-08 01:24:00,54.4,52.0,29.27,NNE,12,0.0,-999.0,92,-99.99,,,0.00,weatherlink.com 1.10,2013-02-08 07:24:00,
2013-02-08 01:39:00,54.2,52.0,29.27,NNE,12,0.0,-999.0,92,-99.99,,,0.00,weatherlink.com 1.10,2013-02-08 07:39:00,
2013-02-08 01:54:00,53.8,52.0,29.27,NNE,12,0.0,-999.0,92,-99.99,,,0.00,weatherlink.com 1.10,2013-02-08 07:54:00,
2013-02-08 02:09:00,53.9,52.0,29.09,NNE,12,0.0,-999.0,92,-99.99,,,0.00,weatherlink.com 1.10,2013-02-08 08:09:00,
2013-02-08 02:24:00,53.3,51.0,28.65,NNE,12,0.0,-999.0,92,-99.99,,,0.00,weatherlink.com 1.10,2013-02-08 08:24:00,
2013-02-08 02:39:00,53.2,51.0,29.65,NNE,12,0.0,-999.0,92,-99.99,,,0.00,weatherlink.com 1.10,2013-02-08 08:39:00,
2013-02-08 02:54:00,52.9,51.0,29.65,NNE,12,0.0,-999.0,92,-99.99,,,0.00,weatherlink.com 1.10,2013-02-08 08:54:00,
2013-02-08 03:09:00,53.3,51.0,28.68,NNE,12,0.0,-999.0,93,-99.99,,,0.00,weatherlink.com 1.10,2013-02-08 09:09:00,
2013-02-08 03:24:00,53.5,51.0,29.69,NNE,12,0.0,-999.0,92,-99.99,,,0.00,weatherlink.com 1.10,2013-02-08 09:24:00,
2013-02-08 03:39:00,53.3,51.0,29.80,NNE,12,0.0,-999.0,93,-99.99,,,0.00,weatherlink.com 1.10,2013-02-08 09:39:00,
2013-02-08 03:54:00,53.2,51.0,29.80,NNE,12,0.0,-999.0,93,-99.99,,,0.00,weatherlink.com 1.10,2013-02-08 09:54:00,
2013-02-08 04:09:00,53.1,51.0,29.80,NNE,12,0.0,-999.0,93,-99.99,,,0.00,weatherlink.com 1.10,2013-02-08 10:09:00,
2013-02-08 04:24:00,52.9,51.0,29.80,NNE,12,0.0,-999.0,93,-99.99,,,0.00,weatherlink.com 1.10,2013-02-08 10:24:00,
2013-02-08 04:39:00,53.1,51.0,29.78,NNE,12,0.0,-999.0,93,-99.99,,,0.00,weatherlink.com 1.10,2013-02-08 10:39:00,
2013-02-08 04:54:00,52.9,51.0,29.16,NNE,12,0.0,-999.0,93,-99.99,,,0.00,weatherlink.com 1.10,2013-02-08 10:54:00,
2013-02-08 05:09:00,53.2,51.0,29.92,NNE,12,0.0,-999.0,93,-99.99,,,0.00,weatherlink.com 1.10,2013-02-08 11:09:00,
2013-02-08 05:24:00,53.0,51.0,29.95,NNE,12,0.0,-999.0,93,-99.99,,,0.00,weatherlink.com 1.10,2013-02-08 11:24:00,
2013-02-08 05:39:00,52.7,51.0,29.79,NNE,12,0.0,-999.0,93,-99.99,,,0.01,weatherlink.com 1.10,2013-02-08 11:39:00,
2013-02-08 05:54:00,52.8,51.0,29.26,NNE,12,0.0,-999.0,93,-99.99,,,0.01,weatherlink.com 1.10,2013-02-08 11:54:00,
2013-02-08 06:09:00,53.3,51.0,29.66,NNE,12,0.0,-999.0,93,-99.99,,,0.01,weatherlink.com 1.10,2013-02-08 12:09:00,
2013-02-08 06:24:00,53.4,52.0,29.59,NNE,12,0.0,-999.0,93,-99.99,,,0.01,weatherlink.com 1.10,2013-02-08 12:24:00,
2013-02-08 06:39:00,53.6,52.0,29.07,NNE,12,0.0,-999.0,93,-99.99,,,0.01,weatherlink.com 1.10,2013-02-08 12:39:00,
2013-02-08 06:54:00,53.7,52.0,29.07,NNE,13,0.0,-999.0,93,-99.99,,,0.01,weatherlink.com 1.10,2013-02-08 12:54:00,
2013-02-08 07:09:00,54.0,52.0,29.74,NNE,13,0.0,-999.0,93,-99.99,,,0.01,weatherlink.com 1.10,2013-02-08 13:09:00,
2013-02-08 07:24:00,54.4,53.0,29.48,NNE,13,0.0,-999.0,93,-99.99,,,0.01,weatherlink.com 1.10,2013-02-08 13:24:00,
2013-02-08 07:39:00,55.0,53.0,28.20,NNE,13,0.0,-999.0,93,-99.99,,,0.01,weatherlink.com 1.10,2013-02-08 13:39:00,
2013-02-08 07:55:00,55.8,54.0,28.20,NNE,22,0.0,-999.0,93,-99.99,,,0.01,weatherlink.com 1.10,2013-02-08 13:55:00,
2013-02-08 08:09:00,56.4,55.0,28.20,NE,40,0.0,-999.0,93,-99.99,,,0.01,weatherlink.com 1.10,2013-02-08 14:09:00,
2013-02-08 08:24:00,56.8,55.0,28.20,NE,46,0.0,-999.0,93,-99.99,,,0.01,weatherlink.com 1.10,2013-02-08 14:24:00,
2013-02-08 08:39:00,57.2,55.0,29.40,NE,46,0.0,-999.0,93,-99.99,,,0.01,weatherlink.com 1.10,2013-02-08 14:39:00,
2013-02-08 08:54:00,57.7,56.0,29.40,NE,46,0.0,-999.0,93,-99.99,,,0.01,weatherlink.com 1.10,2013-02-08 14:54:00,
2013-02-08 09:09:00,58.3,56.0,29.05,NE,46,0.0,-999.0,93,-99.99,,,0.01,weatherlink.com 1.10,2013-02-08 15:09:00,
2013-02-08 09:24:00,58.4,56.0,28.06,NE,46,0.0,-999.0,93,-99.99,,,0.01,weatherlink.com 1.10,2013-02-08 15:24:00,
2013-02-08 09:40:00,58.6,57.0,28.06,NNE,28,0.0,-999.0,93,-99.99,,,0.01,weatherlink.com 1.10,2013-02-08 15:40:00,
2013-02-08 09:54:00,58.5,57.0,28.06,NW,323,1.0,-999.0,93,-99.99,,,0.01,weatherlink.com 1.10,2013-02-08 15:54:00,
2013-02-08 10:09:00,58.6,56.0,28.06,NW,323,0.0,-999.0,92,-99.99,,,0.01,weatherlink.com 1.10,2013-02-08 16:09:00,
2013-02-08 10:24:00,59.0,57.0,28.06,NW,323,0.0,-999.0,92,-99.99,,,0.01,weatherlink.com 1.10,2013-02-08 16:24:00,
2013-02-08 10:40:00,59.0,57.0,28.06,WNW,282,0.0,-999.0,92,-99.99,,,0.01,weatherlink.com 1.10,2013-02-08 16:40:00,
2013-02-08 10:55:00,59.4,57.0,28.06,WNW,282,0.0,-999.0,92,-99.99,,,0.01,weatherlink.com 1.10,2013-02-08 16:55:00,
2013-02-08 11:10:00,59.6,57.0,26.51,West,281,0.0,-999.0,92,-99.99,,,0.01,weatherlink.com 1.10,2013-02-08 17:10:00,
2013-02-08 11:25:00,59.9,58.0,26.51,West,281,0.0,-999.0,92,-99.99,,,0.01,weatherlink.com 1.10,2013-02-08 17:25:00,
2013-02-08 11:40:00,60.6,58.0,26.51,West,281,0.0,-999.0,92,-99.99,,,0.01,weatherlink.com 1.10,2013-02-08 17:40:00,
2013-02-08 11:55:00,61.3,59.0,26.51,West,281,0.0,-999.0,91,-99.99,,,0.01,weatherlink.com 1.10,2013-02-08 17:55:00,
2013-02-08 12:10:00,61.8,59.0,23.82,WSW,242,3.0,-999.0,90,-99.99,,,0.01,weatherlink.com 1.10,2013-02-08 18:10:00,
2013-02-08 12:25:00,62.2,59.0,23.82,SW,221,3.0,-999.0,90,-99.99,,,0.01,weatherlink.com 1.10,2013-02-08 18:25:00,
2013-02-08 12:40:00,62.5,60.0,23.82,SW,221,4.0,-999.0,90,-99.99,,,0.01,weatherlink.com 1.10,2013-02-08 18:40:00,
2013-02-08 12:55:00,62.6,60.0,23.82,SSW,203,3.0,-999.0,90,-99.99,,,0.01,weatherlink.com 1.10,2013-02-08 18:55:00,
2013-02-08 13:10:00,62.4,60.0,0.00,SSW,202,4.0,-999.0,90,-99.99,,,0.01,weatherlink.com 1.10,2013-02-08 19:10:00,
2013-02-08 13:25:00,-999.0,-99.9,0.00,North,-999,-999.0,-999.0,-999,-99.99,,,0.01,weatherlink.com 1.10,2013-02-08 19:25:00,
2013-02-08 13:44:00,-999.0,-99.9,0.00,North,-999,-999.0,-999.0,-999,-99.99,,,0.01,weatherlink.com 1.10,2013-02-08 19:44:00,
2013-02-08 13:55:00,-999.0,-99.9,26.45,North,-999,-999.0,-999.0,-999,-99.99,,,0.01,weatherlink.com 1.10,2013-02-08 19:55:00,
2013-02-08 14:10:00,-999.0,-99.9,26.45,North,-999,-999.0,-999.0,-999,-99.99,,,0.01,weatherlink.com 1.10,2013-02-08 20:10:00,
2013-02-08 14:25:00,-999.0,-99.9,26.45,North,-999,-999.0,-999.0,-999,-99.99,,,0.01,weatherlink.com 1.10,2013-02-08 20:25:00,
2013-02-08 14:55:00,-999.0,-99.9,26.45,North,-999,-999.0,-999.0,-999,-99.99,,,0.01,weatherlink.com 1.10,2013-02-08 20:55:00,
2013-02-08 15:10:00,-999.0,-99.9,26.45,North,-999,-999.0,-999.0,-999,-99.99,,,0.01,weatherlink.com 1.10,2013-02-08 21:10:00,
2013-02-08 15:25:00,-999.0,-99.9,26.45,North,-999,-999.0,-999.0,-999,-99.99,,,0.01,weatherlink.com 1.10,2013-02-08 21:25:00,
2013-02-08 15:40:00,-999.0,-99.9,26.45,North,-999,-999.0,-999.0,-999,-99.99,,,0.01,weatherlink.com 1.10,2013-02-08 21:40:00,
2013-02-08 15:56:00,-999.0,-99.9,26.45,North,-999,-999.0,-999.0,-999,-99.99,,,0.01,weatherlink.com 1.10,2013-02-08 21:56:00,
2013-02-08 16:11:00,-999.0,-99.9,26.45,North,-999,-999.0,-999.0,-999,-99.99,,,0.01,weatherlink.com 1.10,2013-02-08 22:11:00,
2013-02-08 16:26:00,-999.0,-99.9,26.45,North,-999,-999.0,-999.0,-999,-99.99,,,0.01,weatherlink.com 1.10,2013-02-08 22:26:00,
2013-02-08 16:41:00,-999.0,-99.9,26.45,North,-999,-999.0,-999.0,-999,-99.99,,,0.01,weatherlink.com 1.10,2013-02-08 22:41:00,
2013-02-08 16:56:00,-999.0,-99.9,26.45,North,-999,-999.0,-999.0,-999,-99.99,,,0.01,weatherlink.com 1.10,2013-02-08 22:56:00,
2013-02-08 17:11:00,-999.0,-99.9,26.45,North,-999,-999.0,-999.0,-999,-99.99,,,0.01,weatherlink.com 1.10,2013-02-08 23:11:00,
2013-02-08 17:26:00,-999.0,-99.9,26.45,North,-999,-999.0,-999.0,-999,-99.99,,,0.01,weatherlink.com 1.10,2013-02-08 23:26:00,
2013-02-08 17:41:00,-999.0,-99.9,26.45,North,-999,-999.0,-999.0,-999,-99.99,,,0.01,weatherlink.com 1.10,2013-02-08 23:41:00,
2013-02-08 18:11:00,-999.0,-99.9,26.45,North,-999,-999.0,-999.0,-999,-99.99,,,0.01,weatherlink.com 1.10,2013-02-09 00:11:00,
2013-02-08 18:41:00,-999.0,-99.9,26.45,North,-999,-999.0,-999.0,-999,-99.99,,,0.01,weatherlink.com 1.10,2013-02-09 00:41:00,
2013-02-08 18:57:00,-999.0,-99.9,26.45,North,-999,-999.0,-999.0,-999,-99.99,,,0.01,weatherlink.com 1.10,2013-02-09 00:57:00,
2013-02-08 19:12:00,-999.0,-99.9,0.00,North,-999,-999.0,-999.0,-999,-99.99,,,0.01,weatherlink.com 1.10,2013-02-09 01:12:00,
2013-02-08 19:27:00,-999.0,-99.9,21.00,North,-999,-999.0,-999.0,-999,-99.99,,,0.01,weatherlink.com 1.10,2013-02-09 01:27:00,
2013-02-08 19:42:00,-999.0,-99.9,22.24,North,-999,-999.0,-999.0,-999,-99.99,,,0.01,weatherlink.com 1.10,2013-02-09 01:42:00,
2013-02-08 19:57:00,-999.0,-99.9,24.72,North,-999,-999.0,-999.0,-999,-99.99,,,0.01,weatherlink.com 1.10,2013-02-09 01:57:00,
2013-02-08 20:12:00,-999.0,-99.9,24.72,North,-999,-999.0,-999.0,-999,-99.99,,,0.01,weatherlink.com 1.10,2013-02-09 02:12:00,
2013-02-08 20:27:00,-999.0,-99.9,24.72,North,-999,-999.0,-999.0,-999,-99.99,,,0.01,weatherlink.com 1.10,2013-02-09 02:27:00,
2013-02-08 20:42:00,-999.0,-99.9,24.72,North,-999,-999.0,-999.0,-999,-99.99,,,0.01,weatherlink.com 1.10,2013-02-09 02:42:00,
2013-02-08 20:57:00,-999.0,-99.9,22.71,North,-999,-999.0,-999.0,-999,-99.99,,,0.01,weatherlink.com 1.10,2013-02-09 02:57:00,
2013-02-08 21:12:00,-999.0,-99.9,22.71,North,-999,-999.0,-999.0,-999,-99.99,,,0.01,weatherlink.com 1.10,2013-02-09 03:12:00,
2013-02-08 21:27:00,-999.0,-99.9,22.73,North,-999,-999.0,-999.0,-999,-99.99,,,0.01,weatherlink.com 1.10,2013-02-09 03:27:00,
2013-02-08 21:42:00,-999.0,-99.9,23.46,North,-999,-999.0,-999.0,-999,-99.99,,,0.01,weatherlink.com 1.10,2013-02-09 03:42:00,
2013-02-08 21:57:00,-999.0,-99.9,23.46,North,-999,-999.0,-999.0,-999,-99.99,,,0.01,weatherlink.com 1.10,2013-02-09 03:57:00,
2013-02-08 22:12:00,-999.0,-99.9,23.46,North,-999,-999.0,-999.0,-999,-99.99,,,0.01,weatherlink.com 1.10,2013-02-09 04:12:00,
2013-02-08 22:27:00,-999.0,-99.9,23.46,North,-999,-999.0,-999.0,-999,-99.99,,,0.01,weatherlink.com 1.10,2013-02-09 04:27:00,
2013-02-08 22:43:00,-999.0,-99.9,27.10,North,-999,-999.0,-999.0,-999,-99.99,,,0.01,weatherlink.com 1.10,2013-02-09 04:43:00,
2013-02-08 22:58:00,-999.0,-99.9,27.10,North,-999,-999.0,-999.0,-999,-99.99,,,0.01,weatherlink.com 1.10,2013-02-09 04:58:00,
2013-02-08 23:13:00,-999.0,-99.9,26.90,North,-999,-999.0,-999.0,-999,-99.99,,,0.01,weatherlink.com 1.10,2013-02-09 05:13:00,
2013-02-08 23:28:00,-999.0,-99.9,28.69,North,-999,-999.0,-999.0,-999,-99.99,,,0.01,weatherlink.com 1.10,2013-02-09 05:28:00,
2013-02-08 23:43:00,-999.0,-99.9,28.69,North,-999,-999.0,-999.0,-999,-99.99,,,0.01,weatherlink.com 1.10,2013-02-09 05:43:00,
2013-02-08 23:58:00,-999.0,-99.9,28.24,North,-999,-999.0,-999.0,-999,-99.99,,,0.01,weatherlink.com 1.10,2013-02-09 05:58:00,